sensor_id;sensor_type;location;lat;lon;timestamp;P1;durP1;ratioP1;P2;durP2;ratioP2
17812;SDS011;9030;50.792;8.320;2023-11-18T00:00:52;76.30;;;40.50;;
17812;SDS011;9030;50.792;8.320;2023-11-18T00:03:19;55.03;;;35.50;;
17812;SDS011;9030;50.792;8.320;2023-11-18T00:05:46;47.33;;;36.57;;
17812;SDS011;9030;50.792;8.320;2023-11-18T00:08:13;59.73;;;38.73;;
17812;SDS011;9030;50.792;8.320;2023-11-18T00:10:40;58.17;;;37.53;;
17812;SDS011;9030;50.792;8.320;2023-11-18T00:13:07;63.03;;;42.27;;
17812;SDS011;9030;50.792;8.320;2023-11-18T00:15:34;61.10;;;40.03;;
17812;SDS011;9030;50.792;8.320;2023-11-18T00:18:01;84.17;;;46.27;;
17812;SDS011;9030;50.792;8.320;2023-11-18T00:20:27;46.70;;;32.17;;
17812;SDS011;9030;50.792;8.320;2023-11-18T00:22:55;46.87;;;34.20;;
17812;SDS011;9030;50.792;8.320;2023-11-18T00:25:22;78.97;;;35.70;;
17812;SDS011;9030;50.792;8.320;2023-11-18T00:27:50;81.70;;;36.67;;
17812;SDS011;9030;50.792;8.320;2023-11-18T00:30:17;60.50;;;32.43;;
17812;SDS011;9030;50.792;8.320;2023-11-18T00:32:44;41.00;;;26.60;;
17812;SDS011;9030;50.792;8.320;2023-11-18T00:35:10;59.10;;;29.33;;
17812;SDS011;9030;50.792;8.320;2023-11-18T00:37:37;36.80;;;23.67;;
17812;SDS011;9030;50.792;8.320;2023-11-18T00:40:04;30.77;;;22.70;;
17812;SDS011;9030;50.792;8.320;2023-11-18T00:42:32;33.17;;;22.63;;
17812;SDS011;9030;50.792;8.320;2023-11-18T00:45:00;33.27;;;22.47;;
17812;SDS011;9030;50.792;8.320;2023-11-18T00:47:29;30.23;;;21.07;;
17812;SDS011;9030;50.792;8.320;2023-11-18T00:49:55;56.47;;;24.73;;
17812;SDS011;9030;50.792;8.320;2023-11-18T00:52:22;35.20;;;22.50;;
17812;SDS011;9030;50.792;8.320;2023-11-18T00:54:49;46.47;;;22.67;;
17812;SDS011;9030;50.792;8.320;2023-11-18T00:57:16;33.70;;;21.47;;
17812;SDS011;9030;50.792;8.320;2023-11-18T00:59:43;31.23;;;19.37;;
17812;SDS011;9030;50.792;8.320;2023-11-18T01:02:10;33.03;;;20.50;;
17812;SDS011;9030;50.792;8.320;2023-11-18T01:04:38;48.33;;;23.00;;
17812;SDS011;9030;50.792;8.320;2023-11-18T01:07:05;32.60;;;20.03;;
17812;SDS011;9030;50.792;8.320;2023-11-18T01:09:36;30.23;;;18.13;;
17812;SDS011;9030;50.792;8.320;2023-11-18T01:12:04;58.80;;;25.87;;
17812;SDS011;9030;50.792;8.320;2023-11-18T01:14:34;34.70;;;22.93;;
17812;SDS011;9030;50.792;8.320;2023-11-18T01:17:03;26.67;;;18.77;;
17812;SDS011;9030;50.792;8.320;2023-11-18T01:19:31;32.70;;;21.70;;
17812;SDS011;9030;50.792;8.320;2023-11-18T01:21:58;28.50;;;18.33;;
17812;SDS011;9030;50.792;8.320;2023-11-18T01:24:25;30.47;;;21.10;;
17812;SDS011;9030;50.792;8.320;2023-11-18T01:26:51;35.17;;;23.00;;
17812;SDS011;9030;50.792;8.320;2023-11-18T01:29:18;30.80;;;21.17;;
17812;SDS011;9030;50.792;8.320;2023-11-18T01:31:46;31.93;;;19.40;;
17812;SDS011;9030;50.792;8.320;2023-11-18T01:34:12;45.63;;;19.80;;
17812;SDS011;9030;50.792;8.320;2023-11-18T01:36:41;35.67;;;18.13;;
17812;SDS011;9030;50.792;8.320;2023-11-18T01:39:08;48.93;;;19.97;;
17812;SDS011;9030;50.792;8.320;2023-11-18T01:41:37;24.53;;;17.17;;
17812;SDS011;9030;50.792;8.320;2023-11-18T01:44:05;64.90;;;21.13;;
17812;SDS011;9030;50.792;8.320;2023-11-18T01:46:33;38.20;;;17.27;;
17812;SDS011;9030;50.792;8.320;2023-11-18T01:49:00;24.70;;;17.93;;
17812;SDS011;9030;50.792;8.320;2023-11-18T01:51:28;26.43;;;16.20;;
17812;SDS011;9030;50.792;8.320;2023-11-18T01:53:56;92.23;;;25.57;;
17812;SDS011;9030;50.792;8.320;2023-11-18T01:56:25;26.10;;;17.63;;
17812;SDS011;9030;50.792;8.320;2023-11-18T01:58:53;31.40;;;17.23;;
17812;SDS011;9030;50.792;8.320;2023-11-18T02:01:20;25.70;;;16.60;;
17812;SDS011;9030;50.792;8.320;2023-11-18T02:03:47;36.83;;;20.83;;
17812;SDS011;9030;50.792;8.320;2023-11-18T02:06:14;29.23;;;18.90;;
17812;SDS011;9030;50.792;8.320;2023-11-18T02:08:41;40.73;;;20.30;;
17812;SDS011;9030;50.792;8.320;2023-11-18T02:11:17;34.97;;;22.70;;
17812;SDS011;9030;50.792;8.320;2023-11-18T02:13:51;30.23;;;21.77;;
17812;SDS011;9030;50.792;8.320;2023-11-18T02:16:20;36.67;;;21.67;;
17812;SDS011;9030;50.792;8.320;2023-11-18T02:18:48;28.77;;;19.13;;
17812;SDS011;9030;50.792;8.320;2023-11-18T02:21:16;30.63;;;20.97;;
17812;SDS011;9030;50.792;8.320;2023-11-18T02:23:43;29.87;;;19.37;;
17812;SDS011;9030;50.792;8.320;2023-11-18T02:26:11;131.00;;;30.33;;
17812;SDS011;9030;50.792;8.320;2023-11-18T02:28:47;37.00;;;20.13;;
17812;SDS011;9030;50.792;8.320;2023-11-18T02:31:15;30.43;;;19.77;;
17812;SDS011;9030;50.792;8.320;2023-11-18T02:33:52;28.63;;;20.70;;
17812;SDS011;9030;50.792;8.320;2023-11-18T02:36:25;31.00;;;19.43;;
17812;SDS011;9030;50.792;8.320;2023-11-18T02:39:01;46.60;;;19.97;;
17812;SDS011;9030;50.792;8.320;2023-11-18T02:41:33;53.77;;;19.40;;
17812;SDS011;9030;50.792;8.320;2023-11-18T02:44:01;50.70;;;21.07;;
17812;SDS011;9030;50.792;8.320;2023-11-18T02:46:33;36.43;;;18.70;;
17812;SDS011;9030;50.792;8.320;2023-11-18T02:49:00;40.93;;;20.50;;
17812;SDS011;9030;50.792;8.320;2023-11-18T02:51:27;44.70;;;17.90;;
17812;SDS011;9030;50.792;8.320;2023-11-18T02:53:54;30.33;;;20.67;;
17812;SDS011;9030;50.792;8.320;2023-11-18T02:56:21;37.97;;;19.67;;
17812;SDS011;9030;50.792;8.320;2023-11-18T02:58:49;29.40;;;16.73;;
17812;SDS011;9030;50.792;8.320;2023-11-18T03:01:15;59.30;;;22.97;;
17812;SDS011;9030;50.792;8.320;2023-11-18T03:03:44;66.73;;;21.40;;
17812;SDS011;9030;50.792;8.320;2023-11-18T03:06:11;26.70;;;16.60;;
17812;SDS011;9030;50.792;8.320;2023-11-18T03:08:37;40.47;;;19.17;;
17812;SDS011;9030;50.792;8.320;2023-11-18T03:11:06;33.30;;;18.43;;
17812;SDS011;9030;50.792;8.320;2023-11-18T03:13:34;31.97;;;18.20;;
17812;SDS011;9030;50.792;8.320;2023-11-18T03:16:05;52.67;;;17.20;;
17812;SDS011;9030;50.792;8.320;2023-11-18T03:18:36;31.47;;;16.63;;
17812;SDS011;9030;50.792;8.320;2023-11-18T03:21:04;70.30;;;20.33;;
17812;SDS011;9030;50.792;8.320;2023-11-18T03:23:32;25.53;;;16.23;;
17812;SDS011;9030;50.792;8.320;2023-11-18T03:25:58;29.40;;;14.17;;
17812;SDS011;9030;50.792;8.320;2023-11-18T03:28:25;26.97;;;16.40;;
17812;SDS011;9030;50.792;8.320;2023-11-18T03:30:52;29.93;;;15.80;;
17812;SDS011;9030;50.792;8.320;2023-11-18T03:33:20;33.97;;;18.30;;
17812;SDS011;9030;50.792;8.320;2023-11-18T03:35:46;23.63;;;16.00;;
17812;SDS011;9030;50.792;8.320;2023-11-18T03:38:13;24.27;;;15.90;;
17812;SDS011;9030;50.792;8.320;2023-11-18T03:40:42;21.93;;;15.03;;
17812;SDS011;9030;50.792;8.320;2023-11-18T03:43:10;24.13;;;16.57;;
17812;SDS011;9030;50.792;8.320;2023-11-18T03:45:38;25.00;;;15.20;;
17812;SDS011;9030;50.792;8.320;2023-11-18T03:48:04;19.97;;;13.43;;
17812;SDS011;9030;50.792;8.320;2023-11-18T03:50:32;28.03;;;16.97;;
17812;SDS011;9030;50.792;8.320;2023-11-18T03:52:59;28.23;;;15.87;;
17812;SDS011;9030;50.792;8.320;2023-11-18T03:55:26;23.77;;;14.37;;
17812;SDS011;9030;50.792;8.320;2023-11-18T03:57:53;24.17;;;15.23;;
17812;SDS011;9030;50.792;8.320;2023-11-18T04:00:19;22.07;;;14.70;;
17812;SDS011;9030;50.792;8.320;2023-11-18T04:02:46;32.90;;;15.93;;
17812;SDS011;9030;50.792;8.320;2023-11-18T04:05:13;24.20;;;15.80;;
17812;SDS011;9030;50.792;8.320;2023-11-18T04:07:41;21.93;;;14.93;;
17812;SDS011;9030;50.792;8.320;2023-11-18T04:10:08;22.93;;;15.70;;
17812;SDS011;9030;50.792;8.320;2023-11-18T04:12:36;39.30;;;16.90;;
17812;SDS011;9030;50.792;8.320;2023-11-18T04:15:03;28.57;;;16.87;;
17812;SDS011;9030;50.792;8.320;2023-11-18T04:17:30;20.40;;;14.30;;
17812;SDS011;9030;50.792;8.320;2023-11-18T04:19:57;32.33;;;16.43;;
17812;SDS011;9030;50.792;8.320;2023-11-18T04:22:25;22.50;;;14.33;;
17812;SDS011;9030;50.792;8.320;2023-11-18T04:24:53;25.50;;;15.93;;
17812;SDS011;9030;50.792;8.320;2023-11-18T04:27:20;22.03;;;15.43;;
17812;SDS011;9030;50.792;8.320;2023-11-18T04:29:46;22.67;;;16.60;;
17812;SDS011;9030;50.792;8.320;2023-11-18T04:32:13;22.57;;;16.13;;
17812;SDS011;9030;50.792;8.320;2023-11-18T04:34:41;21.17;;;14.63;;
17812;SDS011;9030;50.792;8.320;2023-11-18T04:37:07;25.07;;;16.40;;
17812;SDS011;9030;50.792;8.320;2023-11-18T04:39:34;22.43;;;15.03;;
17812;SDS011;9030;50.792;8.320;2023-11-18T04:42:03;21.17;;;15.33;;
17812;SDS011;9030;50.792;8.320;2023-11-18T04:44:30;23.87;;;15.47;;
17812;SDS011;9030;50.792;8.320;2023-11-18T04:46:57;21.73;;;16.17;;
17812;SDS011;9030;50.792;8.320;2023-11-18T04:49:24;30.97;;;18.43;;
17812;SDS011;9030;50.792;8.320;2023-11-18T04:51:50;27.77;;;15.27;;
17812;SDS011;9030;50.792;8.320;2023-11-18T04:54:17;25.33;;;15.83;;
17812;SDS011;9030;50.792;8.320;2023-11-18T04:56:44;22.50;;;15.77;;
17812;SDS011;9030;50.792;8.320;2023-11-18T04:59:12;27.60;;;16.60;;
17812;SDS011;9030;50.792;8.320;2023-11-18T05:01:39;23.17;;;14.57;;
17812;SDS011;9030;50.792;8.320;2023-11-18T05:04:05;21.10;;;14.57;;
17812;SDS011;9030;50.792;8.320;2023-11-18T05:06:33;22.00;;;15.60;;
17812;SDS011;9030;50.792;8.320;2023-11-18T05:08:59;22.97;;;15.73;;
17812;SDS011;9030;50.792;8.320;2023-11-18T05:11:26;21.90;;;14.87;;
17812;SDS011;9030;50.792;8.320;2023-11-18T05:13:53;23.87;;;17.23;;
17812;SDS011;9030;50.792;8.320;2023-11-18T05:16:22;20.53;;;14.27;;
17812;SDS011;9030;50.792;8.320;2023-11-18T05:18:49;24.93;;;16.30;;
17812;SDS011;9030;50.792;8.320;2023-11-18T05:21:15;22.00;;;16.13;;
17812;SDS011;9030;50.792;8.320;2023-11-18T05:23:43;26.30;;;18.23;;
17812;SDS011;9030;50.792;8.320;2023-11-18T05:26:10;25.97;;;16.53;;
17812;SDS011;9030;50.792;8.320;2023-11-18T05:28:36;29.30;;;18.10;;
17812;SDS011;9030;50.792;8.320;2023-11-18T05:31:03;25.70;;;17.50;;
17812;SDS011;9030;50.792;8.320;2023-11-18T05:33:32;32.17;;;20.20;;
17812;SDS011;9030;50.792;8.320;2023-11-18T05:36:00;21.33;;;14.60;;
17812;SDS011;9030;50.792;8.320;2023-11-18T05:38:29;26.53;;;15.20;;
17812;SDS011;9030;50.792;8.320;2023-11-18T05:41:00;22.83;;;16.33;;
17812;SDS011;9030;50.792;8.320;2023-11-18T05:43:29;22.00;;;15.27;;
17812;SDS011;9030;50.792;8.320;2023-11-18T05:46:01;24.30;;;16.70;;
17812;SDS011;9030;50.792;8.320;2023-11-18T05:48:46;22.67;;;15.97;;
17812;SDS011;9030;50.792;8.320;2023-11-18T05:51:14;25.40;;;16.57;;
17812;SDS011;9030;50.792;8.320;2023-11-18T05:53:44;25.43;;;16.73;;
17812;SDS011;9030;50.792;8.320;2023-11-18T05:56:12;23.63;;;16.37;;
17812;SDS011;9030;50.792;8.320;2023-11-18T05:58:38;23.47;;;17.43;;
17812;SDS011;9030;50.792;8.320;2023-11-18T06:01:05;26.97;;;16.73;;
17812;SDS011;9030;50.792;8.320;2023-11-18T06:03:33;25.70;;;19.13;;
17812;SDS011;9030;50.792;8.320;2023-11-18T06:06:04;26.87;;;19.70;;
17812;SDS011;9030;50.792;8.320;2023-11-18T06:08:31;29.33;;;18.17;;
17812;SDS011;9030;50.792;8.320;2023-11-18T06:10:58;28.33;;;20.07;;
17812;SDS011;9030;50.792;8.320;2023-11-18T06:13:30;22.83;;;16.27;;
17812;SDS011;9030;50.792;8.320;2023-11-18T06:15:57;26.70;;;18.53;;
17812;SDS011;9030;50.792;8.320;2023-11-18T06:18:24;27.20;;;19.03;;
17812;SDS011;9030;50.792;8.320;2023-11-18T06:20:51;35.50;;;21.03;;
17812;SDS011;9030;50.792;8.320;2023-11-18T06:23:19;26.13;;;18.03;;
17812;SDS011;9030;50.792;8.320;2023-11-18T06:25:46;26.43;;;17.20;;
17812;SDS011;9030;50.792;8.320;2023-11-18T06:28:13;28.13;;;19.30;;
17812;SDS011;9030;50.792;8.320;2023-11-18T06:30:40;27.17;;;20.33;;
17812;SDS011;9030;50.792;8.320;2023-11-18T06:33:07;29.17;;;19.73;;
17812;SDS011;9030;50.792;8.320;2023-11-18T06:35:33;28.77;;;20.20;;
17812;SDS011;9030;50.792;8.320;2023-11-18T06:38:00;27.97;;;18.87;;
17812;SDS011;9030;50.792;8.320;2023-11-18T06:40:29;29.90;;;20.57;;
17812;SDS011;9030;50.792;8.320;2023-11-18T06:42:55;29.40;;;20.10;;
17812;SDS011;9030;50.792;8.320;2023-11-18T06:45:26;27.43;;;17.70;;
17812;SDS011;9030;50.792;8.320;2023-11-18T06:47:56;25.97;;;17.93;;
17812;SDS011;9030;50.792;8.320;2023-11-18T06:50:23;29.03;;;20.50;;
17812;SDS011;9030;50.792;8.320;2023-11-18T06:52:51;32.87;;;21.17;;
17812;SDS011;9030;50.792;8.320;2023-11-18T06:55:18;24.87;;;19.30;;
17812;SDS011;9030;50.792;8.320;2023-11-18T06:57:46;28.50;;;20.87;;
17812;SDS011;9030;50.792;8.320;2023-11-18T07:00:13;25.33;;;18.10;;
17812;SDS011;9030;50.792;8.320;2023-11-18T07:02:40;28.20;;;19.90;;
17812;SDS011;9030;50.792;8.320;2023-11-18T07:05:07;30.40;;;18.73;;
17812;SDS011;9030;50.792;8.320;2023-11-18T07:07:34;24.60;;;19.03;;
17812;SDS011;9030;50.792;8.320;2023-11-18T07:10:05;27.53;;;17.33;;
17812;SDS011;9030;50.792;8.320;2023-11-18T07:12:37;31.17;;;22.00;;
17812;SDS011;9030;50.792;8.320;2023-11-18T07:15:06;34.57;;;26.33;;
17812;SDS011;9030;50.792;8.320;2023-11-18T07:17:35;33.13;;;25.90;;
17812;SDS011;9030;50.792;8.320;2023-11-18T07:20:02;25.90;;;20.87;;
17812;SDS011;9030;50.792;8.320;2023-11-18T07:22:30;24.90;;;18.63;;
17812;SDS011;9030;50.792;8.320;2023-11-18T07:24:57;28.10;;;19.23;;
17812;SDS011;9030;50.792;8.320;2023-11-18T07:27:24;29.47;;;21.03;;
17812;SDS011;9030;50.792;8.320;2023-11-18T07:29:50;27.37;;;17.80;;
17812;SDS011;9030;50.792;8.320;2023-11-18T07:32:19;23.57;;;17.53;;
17812;SDS011;9030;50.792;8.320;2023-11-18T07:34:45;26.97;;;19.10;;
17812;SDS011;9030;50.792;8.320;2023-11-18T07:37:12;26.07;;;18.63;;
17812;SDS011;9030;50.792;8.320;2023-11-18T07:39:39;28.63;;;18.73;;
17812;SDS011;9030;50.792;8.320;2023-11-18T07:42:10;25.80;;;17.90;;
17812;SDS011;9030;50.792;8.320;2023-11-18T07:44:37;26.73;;;19.97;;
17812;SDS011;9030;50.792;8.320;2023-11-18T07:47:05;25.60;;;17.30;;
17812;SDS011;9030;50.792;8.320;2023-11-18T07:49:33;28.50;;;18.47;;
17812;SDS011;9030;50.792;8.320;2023-11-18T07:52:00;28.93;;;18.43;;
17812;SDS011;9030;50.792;8.320;2023-11-18T07:54:27;28.07;;;20.00;;
17812;SDS011;9030;50.792;8.320;2023-11-18T07:56:54;25.07;;;19.50;;
17812;SDS011;9030;50.792;8.320;2023-11-18T07:59:20;26.87;;;18.23;;
17812;SDS011;9030;50.792;8.320;2023-11-18T08:01:49;30.57;;;21.43;;
17812;SDS011;9030;50.792;8.320;2023-11-18T08:04:15;26.10;;;19.27;;
17812;SDS011;9030;50.792;8.320;2023-11-18T08:06:47;29.50;;;21.83;;
17812;SDS011;9030;50.792;8.320;2023-11-18T08:09:17;30.73;;;21.17;;
17812;SDS011;9030;50.792;8.320;2023-11-18T08:11:48;37.67;;;23.97;;
17812;SDS011;9030;50.792;8.320;2023-11-18T08:14:15;32.80;;;22.07;;
17812;SDS011;9030;50.792;8.320;2023-11-18T08:16:42;31.83;;;20.17;;
17812;SDS011;9030;50.792;8.320;2023-11-18T08:19:08;35.87;;;21.00;;
17812;SDS011;9030;50.792;8.320;2023-11-18T08:21:35;40.73;;;23.20;;
17812;SDS011;9030;50.792;8.320;2023-11-18T08:24:05;31.57;;;22.50;;
17812;SDS011;9030;50.792;8.320;2023-11-18T08:26:33;31.87;;;22.30;;
17812;SDS011;9030;50.792;8.320;2023-11-18T08:28:59;29.93;;;22.17;;
17812;SDS011;9030;50.792;8.320;2023-11-18T08:31:27;40.23;;;26.60;;
17812;SDS011;9030;50.792;8.320;2023-11-18T08:33:53;32.33;;;25.43;;
17812;SDS011;9030;50.792;8.320;2023-11-18T08:36:23;37.67;;;25.30;;
17812;SDS011;9030;50.792;8.320;2023-11-18T08:38:52;34.20;;;26.57;;
17812;SDS011;9030;50.792;8.320;2023-11-18T08:41:20;31.40;;;25.27;;
17812;SDS011;9030;50.792;8.320;2023-11-18T08:43:47;36.73;;;25.93;;
17812;SDS011;9030;50.792;8.320;2023-11-18T08:46:14;38.77;;;26.90;;
17812;SDS011;9030;50.792;8.320;2023-11-18T08:48:41;29.63;;;23.07;;
17812;SDS011;9030;50.792;8.320;2023-11-18T08:51:09;36.03;;;27.93;;
17812;SDS011;9030;50.792;8.320;2023-11-18T08:53:37;44.27;;;28.27;;
17812;SDS011;9030;50.792;8.320;2023-11-18T08:56:07;31.87;;;25.87;;
17812;SDS011;9030;50.792;8.320;2023-11-18T08:58:40;38.60;;;25.83;;
17812;SDS011;9030;50.792;8.320;2023-11-18T09:01:07;34.20;;;25.97;;
17812;SDS011;9030;50.792;8.320;2023-11-18T09:03:39;41.77;;;26.73;;
17812;SDS011;9030;50.792;8.320;2023-11-18T09:06:13;44.67;;;28.97;;
17812;SDS011;9030;50.792;8.320;2023-11-18T09:08:44;39.03;;;24.93;;
17812;SDS011;9030;50.792;8.320;2023-11-18T09:11:17;47.50;;;28.37;;
17812;SDS011;9030;50.792;8.320;2023-11-18T09:13:46;47.83;;;27.40;;
17812;SDS011;9030;50.792;8.320;2023-11-18T09:16:18;47.03;;;27.70;;
17812;SDS011;9030;50.792;8.320;2023-11-18T09:18:47;40.13;;;25.90;;
17812;SDS011;9030;50.792;8.320;2023-11-18T09:21:15;54.70;;;30.43;;
17812;SDS011;9030;50.792;8.320;2023-11-18T09:23:48;50.00;;;33.70;;
17812;SDS011;9030;50.792;8.320;2023-11-18T09:26:14;72.00;;;46.70;;
17812;SDS011;9030;50.792;8.320;2023-11-18T09:28:41;51.00;;;37.30;;
17812;SDS011;9030;50.792;8.320;2023-11-18T09:31:10;63.27;;;38.43;;
17812;SDS011;9030;50.792;8.320;2023-11-18T09:33:38;60.53;;;43.23;;
17812;SDS011;9030;50.792;8.320;2023-11-18T09:36:10;56.13;;;35.07;;
17812;SDS011;9030;50.792;8.320;2023-11-18T09:38:38;49.60;;;36.77;;
17812;SDS011;9030;50.792;8.320;2023-11-18T09:41:06;50.63;;;34.40;;
17812;SDS011;9030;50.792;8.320;2023-11-18T09:43:36;51.97;;;36.67;;
17812;SDS011;9030;50.792;8.320;2023-11-18T09:46:11;67.57;;;38.47;;
17812;SDS011;9030;50.792;8.320;2023-11-18T09:48:42;50.50;;;35.70;;
17812;SDS011;9030;50.792;8.320;2023-11-18T09:51:12;56.93;;;37.03;;
17812;SDS011;9030;50.792;8.320;2023-11-18T09:53:50;60.23;;;40.97;;
17812;SDS011;9030;50.792;8.320;2023-11-18T09:56:19;57.07;;;36.83;;
17812;SDS011;9030;50.792;8.320;2023-11-18T09:58:57;59.13;;;42.73;;
17812;SDS011;9030;50.792;8.320;2023-11-18T10:01:34;67.97;;;42.47;;
17812;SDS011;9030;50.792;8.320;2023-11-18T10:04:05;67.90;;;41.90;;
17812;SDS011;9030;50.792;8.320;2023-11-18T10:06:33;71.07;;;42.30;;
17812;SDS011;9030;50.792;8.320;2023-11-18T10:09:01;70.27;;;41.97;;
17812;SDS011;9030;50.792;8.320;2023-11-18T10:11:40;79.57;;;43.60;;
17812;SDS011;9030;50.792;8.320;2023-11-18T10:14:08;71.90;;;46.13;;
17812;SDS011;9030;50.792;8.320;2023-11-18T10:16:37;73.63;;;44.17;;
17812;SDS011;9030;50.792;8.320;2023-11-18T10:19:04;58.53;;;37.90;;
17812;SDS011;9030;50.792;8.320;2023-11-18T10:21:36;68.17;;;44.17;;
17812;SDS011;9030;50.792;8.320;2023-11-18T10:24:05;71.23;;;44.93;;
17812;SDS011;9030;50.792;8.320;2023-11-18T10:26:39;71.03;;;45.00;;
17812;SDS011;9030;50.792;8.320;2023-11-18T10:29:06;69.30;;;45.50;;
17812;SDS011;9030;50.792;8.320;2023-11-18T10:31:36;76.53;;;45.53;;
17812;SDS011;9030;50.792;8.320;2023-11-18T10:34:10;75.37;;;43.33;;
17812;SDS011;9030;50.792;8.320;2023-11-18T10:36:40;74.37;;;45.53;;
17812;SDS011;9030;50.792;8.320;2023-11-18T10:39:10;53.30;;;37.80;;
17812;SDS011;9030;50.792;8.320;2023-11-18T10:41:41;42.73;;;34.33;;
17812;SDS011;9030;50.792;8.320;2023-11-18T10:44:09;48.53;;;29.27;;
17812;SDS011;9030;50.792;8.320;2023-11-18T10:46:40;41.10;;;24.73;;
17812;SDS011;9030;50.792;8.320;2023-11-18T10:49:07;46.30;;;28.27;;
17812;SDS011;9030;50.792;8.320;2023-11-18T10:51:35;81.97;;;33.73;;
17812;SDS011;9030;50.792;8.320;2023-11-18T10:54:04;45.83;;;25.47;;
17812;SDS011;9030;50.792;8.320;2023-11-18T10:56:40;157.30;;;40.80;;
17812;SDS011;9030;50.792;8.320;2023-11-18T10:59:12;68.07;;;26.93;;
17812;SDS011;9030;50.792;8.320;2023-11-18T11:01:42;47.90;;;25.03;;
17812;SDS011;9030;50.792;8.320;2023-11-18T11:04:13;37.30;;;21.17;;
17812;SDS011;9030;50.792;8.320;2023-11-18T11:06:42;39.33;;;24.17;;
17812;SDS011;9030;50.792;8.320;2023-11-18T11:09:17;55.00;;;25.10;;
17812;SDS011;9030;50.792;8.320;2023-11-18T11:11:46;54.63;;;24.07;;
17812;SDS011;9030;50.792;8.320;2023-11-18T11:14:16;50.17;;;24.10;;
17812;SDS011;9030;50.792;8.320;2023-11-18T11:16:51;52.63;;;26.53;;
17812;SDS011;9030;50.792;8.320;2023-11-18T11:19:20;46.97;;;25.13;;
17812;SDS011;9030;50.792;8.320;2023-11-18T11:21:55;46.30;;;24.53;;
17812;SDS011;9030;50.792;8.320;2023-11-18T11:24:28;51.67;;;25.83;;
17812;SDS011;9030;50.792;8.320;2023-11-18T11:27:16;81.47;;;32.27;;
17812;SDS011;9030;50.792;8.320;2023-11-18T11:29:54;61.13;;;27.90;;
17812;SDS011;9030;50.792;8.320;2023-11-18T11:32:28;37.87;;;23.53;;
17812;SDS011;9030;50.792;8.320;2023-11-18T11:35:05;39.43;;;24.70;;
17812;SDS011;9030;50.792;8.320;2023-11-18T11:37:43;38.53;;;20.83;;
17812;SDS011;9030;50.792;8.320;2023-11-18T11:40:12;36.43;;;23.10;;
17812;SDS011;9030;50.792;8.320;2023-11-18T11:42:47;44.17;;;23.57;;
17812;SDS011;9030;50.792;8.320;2023-11-18T11:45:15;40.10;;;27.20;;
17812;SDS011;9030;50.792;8.320;2023-11-18T11:47:48;38.03;;;22.13;;
17812;SDS011;9030;50.792;8.320;2023-11-18T11:50:18;40.37;;;27.50;;
17812;SDS011;9030;50.792;8.320;2023-11-18T11:52:58;35.73;;;24.27;;
17812;SDS011;9030;50.792;8.320;2023-11-18T11:55:33;83.03;;;29.43;;
17812;SDS011;9030;50.792;8.320;2023-11-18T11:58:12;50.03;;;24.60;;
17812;SDS011;9030;50.792;8.320;2023-11-18T12:00:52;48.40;;;25.57;;
17812;SDS011;9030;50.792;8.320;2023-11-18T12:03:20;37.70;;;26.20;;
17812;SDS011;9030;50.792;8.320;2023-11-18T12:05:48;44.23;;;29.10;;
17812;SDS011;9030;50.792;8.320;2023-11-18T12:08:16;39.57;;;26.47;;
17812;SDS011;9030;50.792;8.320;2023-11-18T12:10:50;39.50;;;24.17;;
17812;SDS011;9030;50.792;8.320;2023-11-18T12:13:18;36.07;;;24.70;;
17812;SDS011;9030;50.792;8.320;2023-11-18T12:15:49;35.87;;;26.10;;
17812;SDS011;9030;50.792;8.320;2023-11-18T12:18:23;42.13;;;30.90;;
17812;SDS011;9030;50.792;8.320;2023-11-18T12:20:50;31.67;;;22.57;;
17812;SDS011;9030;50.792;8.320;2023-11-18T12:23:20;35.30;;;24.43;;
17812;SDS011;9030;50.792;8.320;2023-11-18T12:25:49;40.27;;;26.40;;
17812;SDS011;9030;50.792;8.320;2023-11-18T12:28:20;44.83;;;29.90;;
17812;SDS011;9030;50.792;8.320;2023-11-18T12:30:52;36.27;;;24.63;;
17812;SDS011;9030;50.792;8.320;2023-11-18T12:33:22;35.80;;;24.00;;
17812;SDS011;9030;50.792;8.320;2023-11-18T12:36:11;33.10;;;23.30;;
17812;SDS011;9030;50.792;8.320;2023-11-18T12:39:13;39.07;;;26.53;;
17812;SDS011;9030;50.792;8.320;2023-11-18T12:42:05;38.37;;;28.53;;
17812;SDS011;9030;50.792;8.320;2023-11-18T12:44:37;40.37;;;25.40;;
17812;SDS011;9030;50.792;8.320;2023-11-18T12:47:06;41.77;;;28.27;;
17812;SDS011;9030;50.792;8.320;2023-11-18T12:49:44;38.60;;;25.57;;
17812;SDS011;9030;50.792;8.320;2023-11-18T12:52:15;33.53;;;23.23;;
17812;SDS011;9030;50.792;8.320;2023-11-18T12:54:44;35.47;;;23.47;;
17812;SDS011;9030;50.792;8.320;2023-11-18T12:57:15;46.43;;;26.23;;
17812;SDS011;9030;50.792;8.320;2023-11-18T12:59:43;35.07;;;25.10;;
17812;SDS011;9030;50.792;8.320;2023-11-18T13:02:10;40.83;;;28.50;;
17812;SDS011;9030;50.792;8.320;2023-11-18T13:04:44;36.30;;;25.57;;
17812;SDS011;9030;50.792;8.320;2023-11-18T13:07:12;30.47;;;23.27;;
17812;SDS011;9030;50.792;8.320;2023-11-18T13:09:39;30.27;;;22.13;;
17812;SDS011;9030;50.792;8.320;2023-11-18T13:12:09;30.97;;;25.30;;
17812;SDS011;9030;50.792;8.320;2023-11-18T13:14:39;31.63;;;22.93;;
17812;SDS011;9030;50.792;8.320;2023-11-18T13:17:08;40.80;;;27.87;;
17812;SDS011;9030;50.792;8.320;2023-11-18T13:19:36;30.67;;;22.57;;
17812;SDS011;9030;50.792;8.320;2023-11-18T13:22:06;30.13;;;21.63;;
17812;SDS011;9030;50.792;8.320;2023-11-18T13:24:34;32.83;;;21.53;;
17812;SDS011;9030;50.792;8.320;2023-11-18T13:27:01;38.23;;;26.73;;
17812;SDS011;9030;50.792;8.320;2023-11-18T13:29:29;39.63;;;26.37;;
17812;SDS011;9030;50.792;8.320;2023-11-18T13:31:56;26.60;;;20.33;;
17812;SDS011;9030;50.792;8.320;2023-11-18T13:34:25;26.63;;;18.87;;
17812;SDS011;9030;50.792;8.320;2023-11-18T13:36:55;26.60;;;19.53;;
17812;SDS011;9030;50.792;8.320;2023-11-18T13:39:23;27.00;;;20.93;;
17812;SDS011;9030;50.792;8.320;2023-11-18T13:41:52;26.97;;;18.73;;
17812;SDS011;9030;50.792;8.320;2023-11-18T13:44:31;36.53;;;24.13;;
17812;SDS011;9030;50.792;8.320;2023-11-18T13:47:00;24.23;;;18.93;;
17812;SDS011;9030;50.792;8.320;2023-11-18T13:49:27;26.23;;;21.50;;
17812;SDS011;9030;50.792;8.320;2023-11-18T13:51:54;33.83;;;24.63;;
17812;SDS011;9030;50.792;8.320;2023-11-18T13:54:20;44.13;;;38.20;;
17812;SDS011;9030;50.792;8.320;2023-11-18T13:56:49;26.97;;;20.27;;
17812;SDS011;9030;50.792;8.320;2023-11-18T13:59:16;31.97;;;23.83;;
17812;SDS011;9030;50.792;8.320;2023-11-18T14:01:43;34.20;;;28.17;;
17812;SDS011;9030;50.792;8.320;2023-11-18T14:04:11;33.97;;;25.93;;
17812;SDS011;9030;50.792;8.320;2023-11-18T14:06:37;29.27;;;23.30;;
17812;SDS011;9030;50.792;8.320;2023-11-18T14:09:04;28.37;;;20.00;;
17812;SDS011;9030;50.792;8.320;2023-11-18T14:11:31;28.03;;;20.73;;
17812;SDS011;9030;50.792;8.320;2023-11-18T14:14:00;29.03;;;21.03;;
17812;SDS011;9030;50.792;8.320;2023-11-18T14:16:27;24.67;;;19.47;;
17812;SDS011;9030;50.792;8.320;2023-11-18T14:18:53;28.10;;;21.50;;
17812;SDS011;9030;50.792;8.320;2023-11-18T14:21:20;20.90;;;16.03;;
17812;SDS011;9030;50.792;8.320;2023-11-18T14:23:47;20.07;;;15.53;;
17812;SDS011;9030;50.792;8.320;2023-11-18T14:26:15;19.37;;;14.87;;
17812;SDS011;9030;50.792;8.320;2023-11-18T14:28:42;20.43;;;15.10;;
17812;SDS011;9030;50.792;8.320;2023-11-18T14:31:10;19.90;;;14.23;;
17812;SDS011;9030;50.792;8.320;2023-11-18T14:33:37;22.70;;;17.90;;
17812;SDS011;9030;50.792;8.320;2023-11-18T14:36:04;22.20;;;18.63;;
17812;SDS011;9030;50.792;8.320;2023-11-18T14:38:31;23.13;;;17.77;;
17812;SDS011;9030;50.792;8.320;2023-11-18T14:40:59;20.20;;;17.07;;
17812;SDS011;9030;50.792;8.320;2023-11-18T14:43:25;18.23;;;13.87;;